Time;durP1;ratioP1;P1;durP2;ratioP2;P2;SDS_P1;SDS_P2;PMS_P1;PMS_P2;Temp;Humidity;BMP_temperature;BMP_pressure;BME280_temperature;BME280_humidity;BME280_pressure;Samples;Min_cycle;Max_cycle;Signal;HPM_P1;HPM_P2
2021/10/11 04:01:25;;;;;;;63.78;34.85;;;8.50;99.90;;;;;;5479649;23;20345;-71
2021/10/11 04:03:53;;;;;;;66.07;34.67;;;8.50;99.90;;;;;;4917627;29;20677;-72
2021/10/11 04:06:19;;;;;;;61.10;35.53;;;8.50;99.90;;;;;;4902875;29;20657;-70
2021/10/11 04:08:48;;;;;;;63.80;34.08;;;8.50;99.90;;;;;;4898764;29;20291;-71
2021/10/11 04:11:23;;;;;;;67.97;34.22;;;8.40;99.90;;;;;;4898959;29;20235;-71
2021/10/11 04:13:50;;;;;;;66.82;33.40;;;8.50;99.90;;;;;;4898835;29;20215;-71
2021/10/11 04:16:16;;;;;;;60.53;34.40;;;8.40;99.90;;;;;;4898903;29;20287;-70
2021/10/11 04:18:44;;;;;;;62.03;33.42;;;8.40;99.90;;;;;;4898744;29;20215;-71
2021/10/11 04:21:11;;;;;;;69.93;33.70;;;8.40;99.90;;;;;;4898178;29;20694;-71
2021/10/11 04:23:38;;;;;;;63.05;33.50;;;8.40;99.90;;;;;;4898181;29;20294;-71
2021/10/11 04:26:05;;;;;;;65.68;34.33;;;8.40;99.90;;;;;;4898664;29;20652;-71
2021/10/11 04:28:32;;;;;;;58.28;34.88;;;8.30;99.90;;;;;;4898673;29;20544;-71
2021/10/11 04:30:58;;;;;;;60.72;33.58;;;8.30;99.90;;;;;;4898554;29;20271;-70
2021/10/11 04:33:25;;;;;;;63.47;32.83;;;8.30;99.90;;;;;;4898329;29;20608;-71
2021/10/11 04:35:53;;;;;;;70.07;35.55;;;8.30;99.90;;;;;;4897992;29;20226;-70
2021/10/11 04:38:20;;;;;;;66.90;32.92;;;8.30;99.90;;;;;;4898052;29;20675;-71
2021/10/11 04:40:47;;;;;;;67.15;33.05;;;8.30;99.90;;;;;;4898294;29;20262;-71
2021/10/11 04:43:13;;;;;;;63.45;33.67;;;8.20;99.90;;;;;;4898512;29;20207;-70
2021/10/11 04:45:40;;;;;;;68.00;33.92;;;8.20;99.90;;;;;;4898385;29;20606;-71
2021/10/11 04:48:08;;;;;;;57.28;33.22;;;8.10;99.90;;;;;;4897727;29;20223;-70
2021/10/11 04:50:35;;;;;;;67.25;33.65;;;8.10;99.90;;;;;;4898225;29;20279;-71
2021/10/11 04:53:05;;;;;;;68.40;33.50;;;8.10;99.90;;;;;;4897233;29;20636;-70
2021/10/11 04:55:32;;;;;;;78.50;35.10;;;8.10;99.90;;;;;;4898060;29;20246;-71
2021/10/11 04:58:00;;;;;;;65.03;33.95;;;8.10;99.90;;;;;;4898336;29;20211;-71
2021/10/11 05:00:27;;;;;;;61.45;33.83;;;8.20;99.90;;;;;;4897738;29;20239;-71
2021/10/11 05:02:54;;;;;;;76.75;36.53;;;8.10;99.90;;;;;;4897692;29;20211;-71
2021/10/11 05:05:21;;;;;;;56.63;34.60;;;8.10;99.90;;;;;;4898542;29;20551;-71
2021/10/11 05:07:47;;;;;;;64.13;33.95;;;8.20;99.90;;;;;;4897079;29;20672;-71
2021/10/11 05:10:15;;;;;;;62.45;34.00;;;8.20;99.90;;;;;;4896271;29;20215;-71
2021/10/11 05:12:42;;;;;;;67.95;33.78;;;8.20;99.90;;;;;;4897451;29;20279;-71
2021/10/11 05:15:09;;;;;;;75.32;33.70;;;8.20;99.90;;;;;;4898027;29;20207;-71
2021/10/11 05:17:36;;;;;;;80.13;36.22;;;8.30;99.90;;;;;;4897830;29;20618;-71
2021/10/11 05:20:04;;;;;;;79.18;35.03;;;8.40;99.90;;;;;;4897677;29;20671;-71
2021/10/11 05:22:30;;;;;;;85.72;35.83;;;8.50;99.90;;;;;;4896918;29;20637;-71
2021/10/11 05:24:57;;;;;;;94.40;39.00;;;8.60;99.90;;;;;;4898156;29;20279;-71
2021/10/11 05:27:25;;;;;;;89.05;37.95;;;8.60;99.90;;;;;;4898120;29;20652;-71
2021/10/11 05:29:52;;;;;;;80.75;39.42;;;8.70;99.90;;;;;;4897362;29;20619;-71
2021/10/11 05:32:19;;;;;;;92.90;36.88;;;8.80;99.90;;;;;;4897483;29;20639;-71
2021/10/11 05:34:46;;;;;;;94.05;36.80;;;8.80;99.90;;;;;;4897394;29;20218;-69
2021/10/11 05:37:12;;;;;;;93.63;38.13;;;8.90;99.90;;;;;;4896900;29;20219;-70
2021/10/11 05:39:39;;;;;;;89.05;35.72;;;9.00;99.90;;;;;;4897565;29;20215;-70
2021/10/11 05:42:08;;;;;;;91.03;39.30;;;9.00;99.90;;;;;;4897177;29;20240;-71
2021/10/11 05:44:36;;;;;;;98.22;37.03;;;9.10;99.90;;;;;;4905188;29;20297;-71
2021/10/11 05:47:04;;;;;;;89.40;37.55;;;9.20;99.90;;;;;;4916174;29;20265;-70
2021/10/11 05:49:31;;;;;;;81.13;37.63;;;9.20;99.90;;;;;;4916596;29;20310;-70
2021/10/11 05:51:58;;;;;;;76.25;35.33;;;9.20;99.90;;;;;;4915283;29;20694;-71
2021/10/11 05:54:24;;;;;;;77.82;35.97;;;9.30;99.90;;;;;;4916358;29;20219;-71
2021/10/11 05:56:51;;;;;;;74.80;34.60;;;9.30;99.90;;;;;;4916165;29;20286;-72
2021/10/11 05:59:17;;;;;;;75.55;35.08;;;9.30;99.90;;;;;;4915802;29;20214;-71
2021/10/11 06:01:45;;;;;;;65.85;32.22;;;9.40;99.90;;;;;;4915871;29;20285;-71
2021/10/11 06:04:12;;;;;;;71.25;32.63;;;9.40;99.90;;;;;;4915747;29;20211;-71
2021/10/11 06:06:39;;;;;;;72.57;32.75;;;9.40;99.90;;;;;;4915544;29;20274;-71
2021/10/11 06:09:05;;;;;;;79.78;34.53;;;9.50;99.90;;;;;;4916016;29;20211;-71
2021/10/11 06:11:32;;;;;;;80.05;32.05;;;9.50;99.90;;;;;;4915351;29;20711;-72
2021/10/11 06:13:59;;;;;;;75.72;33.75;;;9.50;99.90;;;;;;4915659;29;20206;-71
2021/10/11 06:16:26;;;;;;;74.97;34.30;;;9.60;99.90;;;;;;4915839;29;20278;-71
2021/10/11 06:18:54;;;;;;;74.50;31.08;;;9.60;99.90;;;;;;4917092;29;20695;-71
2021/10/11 06:21:20;;;;;;;72.90;34.08;;;9.60;99.90;;;;;;4916171;29;20226;-72
2021/10/11 06:23:50;;;;;;;79.68;34.13;;;9.60;99.90;;;;;;4919720;29;20202;-71
2021/10/11 06:26:17;;;;;;;74.10;34.90;;;9.60;99.90;;;;;;4918665;29;20218;-72
2021/10/11 06:28:44;;;;;;;76.38;33.05;;;9.60;99.90;;;;;;4919714;29;20626;-72
2021/10/11 06:31:10;;;;;;;72.35;34.00;;;9.70;99.90;;;;;;4919388;29;20792;-73
2021/10/11 06:33:37;;;;;;;73.05;33.60;;;9.70;99.90;;;;;;4919434;29;20246;-72
2021/10/11 06:36:05;;;;;;;73.15;32.13;;;9.70;99.90;;;;;;4918174;29;20214;-70
2021/10/11 06:38:32;;;;;;;72.22;33.17;;;9.70;99.90;;;;;;4919073;29;20225;-71
2021/10/11 06:40:59;;;;;;;75.35;33.38;;;9.70;99.90;;;;;;4919304;29;20266;-71
2021/10/11 06:43:25;;;;;;;79.40;34.42;;;9.70;99.90;;;;;;4919487;29;20500;-71
2021/10/11 06:45:52;;;;;;;65.72;30.63;;;9.80;99.90;;;;;;4919234;29;20218;-70
2021/10/11 06:48:19;;;;;;;58.13;32.60;;;9.80;99.90;;;;;;4919213;29;20218;-71
2021/10/11 06:50:46;;;;;;;73.18;32.90;;;9.80;99.90;;;;;;4919471;29;20652;-70
2021/10/11 06:53:14;;;;;;;69.72;33.13;;;9.80;99.90;;;;;;4917799;29;20226;-70
2021/10/11 06:55:41;;;;;;;76.22;31.55;;;9.80;99.90;;;;;;4919328;29;20335;-71
2021/10/11 06:58:08;;;;;;;62.22;32.13;;;9.80;99.90;;;;;;4919417;29;20210;-70
2021/10/11 07:00:36;;;;;;;62.45;31.30;;;9.70;99.90;;;;;;4919384;29;20372;-70
2021/10/11 07:03:05;;;;;;;74.30;34.85;;;9.70;99.90;;;;;;4918761;29;20222;-70
2021/10/11 07:05:31;;;;;;;74.28;34.20;;;9.70;99.90;;;;;;4911214;29;20211;-72
2021/10/11 07:07:59;;;;;;;69.93;33.42;;;9.70;99.90;;;;;;4896915;29;20234;-72
2021/10/11 07:10:28;;;;;;;61.90;31.45;;;9.80;99.90;;;;;;4900273;29;20614;-72
2021/10/11 07:12:54;;;;;;;74.57;33.70;;;9.80;99.90;;;;;;4899863;29;20605;-73
2021/10/11 07:15:21;;;;;;;68.57;32.83;;;9.80;99.90;;;;;;4900433;29;20306;-73
2021/10/11 07:17:48;;;;;;;67.45;31.17;;;9.90;99.90;;;;;;4900103;29;20207;-73
2021/10/11 07:20:15;;;;;;;69.78;30.60;;;9.90;99.90;;;;;;4899912;29;20630;-72
2021/10/11 07:22:42;;;;;;;79.75;33.85;;;10.00;99.90;;;;;;4898872;29;20275;-72
2021/10/11 07:25:09;;;;;;;67.35;31.98;;;10.10;99.90;;;;;;4900061;29;20259;-72
2021/10/11 07:27:37;;;;;;;67.10;32.47;;;10.20;99.90;;;;;;4899958;29;20268;-73
2021/10/11 07:30:04;;;;;;;70.43;31.35;;;10.40;99.90;;;;;;4899833;29;20215;-73
2021/10/11 07:32:31;;;;;;;60.35;30.17;;;10.40;99.90;;;;;;4899033;29;20238;-73
2021/10/11 07:34:59;;;;;;;60.70;30.38;;;10.50;99.90;;;;;;4899821;29;20627;-72
2021/10/11 07:37:25;;;;;;;61.47;30.38;;;10.50;99.90;;;;;;4899079;29;20221;-73
2021/10/11 07:39:52;;;;;;;49.00;28.23;;;10.60;99.90;;;;;;4900413;29;20211;-72
2021/10/11 07:42:19;;;;;;;50.13;26.88;;;10.60;99.90;;;;;;4899686;29;20246;-70
2021/10/11 07:44:47;;;;;;;51.72;25.88;;;10.60;99.90;;;;;;4899669;29;20616;-70
2021/10/11 07:47:14;;;;;;;55.05;27.58;;;10.60;99.90;;;;;;4899561;29;20267;-71
2021/10/11 07:49:41;;;;;;;47.63;26.38;;;10.70;99.90;;;;;;4899565;29;20236;-72
2021/10/11 07:52:07;;;;;;;43.70;24.73;;;10.80;99.90;;;;;;4898698;29;20232;-72
2021/10/11 07:54:34;;;;;;;39.95;23.23;;;10.80;99.90;;;;;;4899433;29;20212;-72
2021/10/11 07:57:01;;;;;;;41.28;25.48;;;10.90;99.90;;;;;;4899403;29;20243;-72
2021/10/11 07:59:28;;;;;;;36.78;23.58;;;10.90;99.90;;;;;;4899450;29;20306;-72
2021/10/11 08:01:57;;;;;;;36.45;23.45;;;11.00;99.90;;;;;;4898795;29;20723;-72
2021/10/11 08:04:23;;;;;;;39.08;23.30;;;11.00;99.90;;;;;;4896170;29;20223;-73
2021/10/11 08:06:50;;;;;;;34.47;24.20;;;11.10;99.90;;;;;;4898176;29;20250;-73
2021/10/11 08:09:17;;;;;;;37.83;21.83;;;11.10;99.90;;;;;;4899148;29;20219;-72
2021/10/11 08:11:43;;;;;;;34.53;22.90;;;11.20;99.90;;;;;;4898757;29;20271;-73
2021/10/11 08:14:10;;;;;;;33.45;20.98;;;11.20;99.90;;;;;;4897947;29;20298;-71
2021/10/11 08:16:40;;;;;;;31.98;22.10;;;11.30;99.90;;;;;;4898735;29;20270;-71
2021/10/11 08:19:08;;;;;;;32.50;20.65;;;11.30;99.90;;;;;;4899011;29;20218;-72
2021/10/11 08:21:35;;;;;;;32.30;20.27;;;11.30;99.90;;;;;;4898689;29;20291;-72
2021/10/11 08:24:04;;;;;;;30.90;19.60;;;11.40;99.90;;;;;;4898844;29;20215;-72
2021/10/11 08:26:31;;;;;;;31.70;20.33;;;11.50;99.90;;;;;;4899200;29;20214;-72
2021/10/11 08:28:59;;;;;;;28.87;20.43;;;11.50;99.90;;;;;;4898653;29;20208;-72
2021/10/11 08:31:26;;;;;;;26.80;19.38;;;11.60;99.90;;;;;;4898445;29;20492;-72
2021/10/11 08:33:52;;;;;;;27.33;17.00;;;11.70;99.90;;;;;;4898228;29;20648;-72
2021/10/11 08:36:20;;;;;;;24.80;17.20;;;11.70;99.90;;;;;;4897732;29;20562;-73
2021/10/11 08:38:47;;;;;;;27.90;16.90;;;11.80;99.90;;;;;;4898714;29;20471;-72
2021/10/11 08:41:15;;;;;;;23.97;17.17;;;11.80;99.90;;;;;;4898410;29;20539;-72
2021/10/11 08:43:44;;;;;;;25.90;17.60;;;11.80;99.90;;;;;;4897816;29;20478;-72
2021/10/11 08:46:11;;;;;;;27.87;17.30;;;11.80;99.90;;;;;;4898246;29;20483;-72
2021/10/11 08:48:37;;;;;;;27.10;16.83;;;11.80;99.90;;;;;;4898519;29;20467;-72
2021/10/11 08:51:07;;;;;;;21.65;16.67;;;11.90;99.90;;;;;;4898536;29;20547;-72
2021/10/11 08:53:36;;;;;;;25.47;16.10;;;11.90;99.90;;;;;;4898124;29;20282;-72
2021/10/11 08:56:03;;;;;;;21.80;14.77;;;11.90;99.90;;;;;;4897661;29;20484;-72
2021/10/11 08:58:42;;;;;;;21.52;15.70;;;12.00;99.90;;;;;;4898084;29;20212;-72
2021/10/11 09:01:09;;;;;;;23.70;14.43;;;12.00;99.90;;;;;;4897769;29;20329;-72
2021/10/11 09:03:35;;;;;;;22.47;13.80;;;12.00;99.90;;;;;;4898369;29;20215;-72
2021/10/11 09:06:07;;;;;;;27.13;14.38;;;12.10;99.90;;;;;;4897756;29;20921;-72
2021/10/11 09:08:36;;;;;;;15.73;11.60;;;12.10;99.90;;;;;;4897878;29;20310;-72
2021/10/11 09:11:05;;;;;;;16.35;12.05;;;12.20;99.90;;;;;;4897807;29;21183;-71
2021/10/11 09:13:38;;;;;;;19.00;11.45;;;12.30;99.90;;;;;;4897987;29;20235;-71
2021/10/11 09:16:07;;;;;;;18.90;10.83;;;12.40;99.90;;;;;;4897762;29;20219;-71
2021/10/11 09:18:35;;;;;;;20.00;10.30;;;12.60;99.90;;;;;;4897571;29;20912;-71
2021/10/11 09:21:02;;;;;;;10.37;8.37;;;12.70;99.90;;;;;;4897408;29;20851;-73
2021/10/11 09:23:30;;;;;;;9.70;8.30;;;12.80;99.90;;;;;;4897266;29;20460;-73
2021/10/11 09:25:59;;;;;;;9.10;7.40;;;12.90;99.90;;;;;;4897667;29;21060;-73
2021/10/11 09:28:27;;;;;;;9.30;6.93;;;12.90;99.90;;;;;;4897843;29;20527;-73
2021/10/11 09:30:55;;;;;;;16.07;7.10;;;12.90;99.90;;;;;;4897643;29;20887;-73
2021/10/11 09:33:23;;;;;;;8.10;5.83;;;12.90;99.90;;;;;;4897227;29;20495;-71
2021/10/11 09:35:53;;;;;;;6.67;5.50;;;12.90;99.90;;;;;;4897170;29;20455;-72
2021/10/11 09:38:23;;;;;;;9.27;5.67;;;13.00;99.90;;;;;;4897667;29;20467;-72
2021/10/11 09:40:51;;;;;;;9.30;4.97;;;13.00;99.90;;;;;;4897816;29;20498;-72
2021/10/11 09:43:22;;;;;;;9.40;5.00;;;13.00;99.90;;;;;;4897539;29;20499;-71
2021/10/11 09:45:49;;;;;;;8.73;4.70;;;13.10;99.90;;;;;;4897656;29;20778;-71
2021/10/11 09:48:17;;;;;;;7.70;5.20;;;13.10;99.90;;;;;;4897156;29;20549;-71
2021/10/11 09:50:45;;;;;;;6.43;4.40;;;13.20;99.90;;;;;;4897699;29;20494;-71
2021/10/11 09:53:13;;;;;;;4.30;3.90;;;13.20;99.90;;;;;;4897148;29;20487;-71
2021/10/11 09:55:41;;;;;;;5.30;3.80;;;13.40;99.90;;;;;;4901646;29;20555;-71
2021/10/11 09:58:10;;;;;;;10.30;4.20;;;13.50;99.90;;;;;;4897816;29;20539;-71
2021/10/11 10:00:38;;;;;;;7.20;3.90;;;13.80;99.90;;;;;;4897419;29;20522;-71
2021/10/11 10:03:05;;;;;;;3.67;3.03;;;14.00;99.90;;;;;;4897464;29;20460;-72
2021/10/11 10:05:36;;;;;;;7.33;3.60;;;14.20;99.90;;;;;;4897467;29;20475;-71
2021/10/11 10:08:07;;;;;;;3.00;2.70;;;14.10;99.90;;;;;;4896818;29;20479;-71
2021/10/11 10:10:35;;;;;;;5.07;2.70;;;14.10;99.90;;;;;;4897529;29;20557;-71
2021/10/11 10:13:02;;;;;;;6.07;2.27;;;14.00;99.90;;;;;;4896935;29;20475;-72
2021/10/11 10:15:32;;;;;;;2.03;1.90;;;14.00;99.90;;;;;;4897111;29;20900;-71
2021/10/11 10:18:07;;;;;;;3.00;1.50;;;14.00;99.90;;;;;;4897372;29;20499;-73
2021/10/11 10:20:35;;;;;;;4.33;2.60;;;14.00;99.90;;;;;;4897180;29;20499;-73
2021/10/11 10:23:03;;;;;;;7.33;2.27;;;14.00;99.90;;;;;;4896014;29;20813;-71
2021/10/11 10:25:30;;;;;;;5.17;2.40;;;14.00;99.90;;;;;;4897349;29;20479;-73
2021/10/11 10:28:10;;;;;;;2.20;2.10;;;14.10;99.90;;;;;;4896866;29;20467;-72
2021/10/11 10:30:36;;;;;;;4.30;2.10;;;14.10;99.90;;;;;;4896810;29;20527;-72
2021/10/11 10:33:07;;;;;;;10.43;2.27;;;14.10;99.90;;;;;;4897369;29;20508;-72
2021/10/11 10:35:35;;;;;;;8.10;2.23;;;14.10;99.90;;;;;;4898317;29;20531;-72
2021/10/11 10:38:02;;;;;;;6.67;2.70;;;14.10;99.90;;;;;;4897860;29;20486;-73
2021/10/11 10:40:31;;;;;;;2.73;1.93;;;14.00;99.90;;;;;;4895755;29;20511;-71
2021/10/11 10:43:06;;;;;;;5.00;2.10;;;14.00;99.90;;;;;;4896919;29;20542;-71
2021/10/11 10:45:35;;;;;;;2.63;1.77;;;14.10;99.90;;;;;;4897708;29;20474;-71
2021/10/11 10:48:03;;;;;;;5.53;2.40;;;14.30;99.90;;;;;;4896617;29;20467;-72
2021/10/11 10:50:33;;;;;;;5.77;2.00;;;14.50;99.90;;;;;;4895801;29;20495;-72
2021/10/11 10:53:01;;;;;;;2.67;2.07;;;14.60;99.90;;;;;;4895782;29;20471;-72
2021/10/11 10:55:28;;;;;;;4.80;1.80;;;14.70;99.90;;;;;;4896978;29;20622;-70
2021/10/11 10:58:00;;;;;;;3.73;2.03;;;14.90;99.90;;;;;;4896679;29;20547;-71
2021/10/11 11:00:26;;;;;;;5.37;1.87;;;15.10;99.90;;;;;;4896529;29;20539;-70
2021/10/11 11:02:53;;;;;;;3.20;1.80;;;15.00;99.90;;;;;;4896500;29;20475;-70
2021/10/11 11:05:24;;;;;;;2.67;1.77;;;15.00;99.90;;;;;;4896493;29;20486;-71
2021/10/11 11:07:53;;;;;;;5.07;1.97;;;15.00;99.90;;;;;;4897677;29;20563;-72
2021/10/11 11:10:22;;;;;;;2.33;1.70;;;15.00;99.90;;;;;;4900112;29;20974;-73
2021/10/11 11:12:54;;;;;;;3.40;2.07;;;15.00;99.90;;;;;;4899919;29;20467;-71
2021/10/11 11:15:26;;;;;;;2.40;1.70;;;15.00;99.90;;;;;;4900303;29;20922;-71
2021/10/11 11:17:54;;;;;;;3.27;1.53;;;14.90;99.90;;;;;;4899740;29;20475;-70
2021/10/11 11:20:24;;;;;;;6.70;1.40;;;14.90;99.90;;;;;;4899991;29;20471;-70
2021/10/11 11:22:54;;;;;;;2.80;1.70;;;15.00;99.90;;;;;;4897714;29;20948;-70
2021/10/11 11:25:26;;;;;;;3.03;1.40;;;15.00;99.90;;;;;;4900335;29;20849;-68
2021/10/11 11:27:55;;;;;;;2.43;2.20;;;15.00;99.90;;;;;;4899541;29;20947;-68
2021/10/11 11:30:22;;;;;;;3.97;1.80;;;14.90;99.90;;;;;;4899456;29;20899;-69
2021/10/11 11:32:50;;;;;;;2.10;1.60;;;15.00;99.90;;;;;;4899699;29;20478;-69
2021/10/11 11:35:19;;;;;;;4.20;1.87;;;14.90;99.90;;;;;;4899746;29;20559;-69
2021/10/11 11:37:47;;;;;;;7.10;1.87;;;14.90;99.90;;;;;;4898685;29;20814;-68
2021/10/11 11:40:18;;;;;;;3.40;1.40;;;15.00;99.90;;;;;;4899645;29;20479;-69
2021/10/11 11:42:45;;;;;;;7.10;1.40;;;15.10;99.90;;;;;;4899143;29;20475;-68
2021/10/11 11:45:12;;;;;;;2.57;1.27;;;15.10;99.90;;;;;;4899539;29;20547;-69
2021/10/11 11:47:39;;;;;;;3.90;1.47;;;15.20;99.90;;;;;;4899624;29;20538;-69
2021/10/11 11:50:17;;;;;;;1.30;1.20;;;15.20;99.90;;;;;;4899567;29;20523;-69
2021/10/11 11:52:46;;;;;;;1.37;1.37;;;15.30;99.90;;;;;;4898307;29;20927;-68
2021/10/11 11:55:12;;;;;;;1.70;0.90;;;15.30;99.90;;;;;;4899574;29;20487;-70
2021/10/11 11:57:45;;;;;;;1.67;1.23;;;15.40;99.90;;;;;;4903194;29;20507;-70
2021/10/11 12:00:13;;;;;;;4.10;1.20;;;15.40;99.90;;;;;;4899628;29;20579;-69
2021/10/11 12:02:42;;;;;;;1.50;0.77;;;15.40;99.90;;;;;;4899171;29;20479;-69
2021/10/11 12:05:10;;;;;;;1.53;1.00;;;15.50;99.90;;;;;;4899503;29;20471;-69
2021/10/11 12:07:41;;;;;;;3.03;1.07;;;15.60;99.90;;;;;;4898168;29;20555;-68
2021/10/11 12:10:09;;;;;;;4.13;1.23;;;15.60;99.90;;;;;;4898957;29;20483;-69
2021/10/11 12:12:36;;;;;;;1.60;1.17;;;15.70;99.90;;;;;;4900906;29;20467;-70
2021/10/11 12:15:05;;;;;;;2.70;1.17;;;15.70;99.90;;;;;;4901131;29;20527;-70
2021/10/11 12:17:33;;;;;;;4.70;0.80;;;15.80;99.90;;;;;;4899911;29;21004;-71
2021/10/11 12:20:00;;;;;;;2.03;0.90;;;15.80;99.90;;;;;;4898409;29;20467;-71
2021/10/11 12:22:30;;;;;;;1.20;0.60;;;15.80;99.90;;;;;;4897576;29;20499;-70
2021/10/11 12:24:59;;;;;;;1.80;1.17;;;15.90;99.90;;;;;;4899240;29;20475;-70
2021/10/11 12:27:25;;;;;;;6.73;1.83;;;15.90;99.90;;;;;;4898942;29;20479;-71
2021/10/11 12:29:54;;;;;;;1.70;0.90;;;15.70;99.90;;;;;;4898779;29;20539;-70
2021/10/11 12:32:29;;;;;;;4.63;1.67;;;15.60;99.90;;;;;;4898024;29;20587;-70
2021/10/11 12:34:58;;;;;;;3.33;1.50;;;15.50;99.90;;;;;;4912772;29;20590;-69
2021/10/11 12:37:25;;;;;;;2.00;0.93;;;15.20;99.90;;;;;;4916580;29;20892;-68
2021/10/11 12:39:55;;;;;;;2.33;0.97;;;14.80;99.90;;;;;;4918015;29;20850;-68
2021/10/11 12:42:24;;;;;;;1.10;1.10;;;14.50;99.90;;;;;;4917224;29;20522;-68
2021/10/11 12:44:55;;;;;;;1.20;1.13;;;14.10;99.90;;;;;;4917519;29;20458;-68
2021/10/11 12:47:24;;;;;;;3.40;1.50;;;13.80;99.90;;;;;;4917173;29;20473;-68
2021/10/11 12:49:54;;;;;;;3.10;1.10;;;13.70;99.90;;;;;;4917589;29;20522;-68
2021/10/11 12:52:30;;;;;;;2.27;1.10;;;13.60;99.90;;;;;;4915752;29;20494;-70
2021/10/11 12:55:05;;;;;;;0.87;0.87;;;13.60;99.90;;;;;;4918263;29;20491;-72
2021/10/11 12:57:32;;;;;;;2.87;1.13;;;13.60;99.90;;;;;;4917304;29;20477;-69
2021/10/11 12:59:59;;;;;;;3.80;1.07;;;13.60;99.90;;;;;;4917064;29;20466;-69
2021/10/11 13:02:27;;;;;;;1.37;1.27;;;13.60;99.90;;;;;;4916386;29;20506;-69
2021/10/11 13:04:53;;;;;;;1.27;0.70;;;13.60;99.90;;;;;;4916973;29;20470;-70
2021/10/11 13:07:20;;;;;;;2.53;0.90;;;13.60;99.90;;;;;;4916069;29;20839;-69
2021/10/11 13:09:47;;;;;;;1.57;0.97;;;13.60;99.90;;;;;;4916492;29;20470;-69
2021/10/11 13:12:14;;;;;;;4.83;0.80;;;13.60;99.90;;;;;;4916255;29;20486;-69
2021/10/11 13:14:40;;;;;;;3.90;1.30;;;13.60;99.90;;;;;;4916966;29;20490;-70
2021/10/11 13:17:07;;;;;;;1.23;1.13;;;13.60;99.90;;;;;;4916482;29;20515;-69
2021/10/11 13:19:37;;;;;;;1.07;1.00;;;13.80;99.90;;;;;;4916575;29;20293;-70
2021/10/11 13:22:04;;;;;;;4.03;1.20;;;13.90;99.90;;;;;;4915467;29;20486;-69
2021/10/11 13:24:31;;;;;;;1.17;0.90;;;14.00;99.90;;;;;;4904307;29;20471;-70
2021/10/11 13:26:58;;;;;;;1.20;1.20;;;14.10;99.90;;;;;;4895426;29;20653;-70
2021/10/11 13:30:03;;;;;;;1.23;1.13;;;14.20;99.90;;;;;;4898256;29;20553;-70
2021/10/11 13:41:35;;;;;;;3.00;1.60;;;14.10;99.90;;;;;;5089314;28;20515;-71
2021/10/11 14:27:56;;;;;;;3.63;0.90;;;13.20;99.90;;;;;;5068389;28;20937;-70
2021/10/11 14:30:27;;;;;;;8.33;1.30;;;13.10;99.90;;;;;;5068201;28;20880;-70
2021/10/11 14:33:18;;;;;;;3.17;1.03;;;13.20;99.90;;;;;;5067857;28;20529;-70
2021/10/11 16:01:01;;;;;;;3.95;1.05;;;12.40;99.90;;;;;;5046674;28;20683;-73
2021/10/11 16:03:32;;;;;;;4.70;1.38;;;12.30;99.90;;;;;;5053368;28;20591;-73
2021/10/11 16:06:00;;;;;;;4.00;1.17;;;12.30;99.90;;;;;;5052970;28;20615;-73
2021/10/11 16:08:27;;;;;;;4.72;1.27;;;12.20;99.90;;;;;;5052861;28;20339;-73
2021/10/11 16:10:53;;;;;;;2.67;0.90;;;12.20;99.90;;;;;;5052924;28;20287;-70
2021/10/11 16:13:20;;;;;;;1.52;1.33;;;12.10;99.90;;;;;;5052674;28;20209;-70
2021/10/11 16:15:48;;;;;;;7.97;1.70;;;12.10;99.90;;;;;;5052989;28;20217;-70
2021/10/11 16:18:14;;;;;;;2.35;1.48;;;12.00;99.90;;;;;;5052566;28;20225;-70
2021/10/11 16:20:41;;;;;;;0.88;0.85;;;12.00;99.90;;;;;;5053148;28;20226;-70
2021/10/11 16:23:11;;;;;;;3.53;1.20;;;11.90;99.90;;;;;;5051655;28;20628;-70
2021/10/11 16:25:38;;;;;;;4.05;0.93;;;11.90;99.90;;;;;;5052850;28;20206;-70
2021/10/11 16:28:06;;;;;;;5.07;1.48;;;11.80;99.90;;;;;;5052509;28;20260;-70
2021/10/11 16:30:33;;;;;;;6.82;1.30;;;11.80;99.90;;;;;;5052431;28;20225;-70
2021/10/11 16:33:00;;;;;;;1.70;1.02;;;11.80;99.90;;;;;;5052157;28;20210;-69
2021/10/11 16:35:26;;;;;;;5.88;2.03;;;11.70;99.90;;;;;;5053042;28;20327;-73
2021/10/11 16:37:53;;;;;;;3.50;1.92;;;11.70;99.90;;;;;;5051807;28;20366;-72
2021/10/11 16:40:21;;;;;;;3.58;1.45;;;11.60;99.90;;;;;;5052451;28;20213;-72
2021/10/11 16:42:48;;;;;;;6.07;2.70;;;11.60;99.90;;;;;;5051994;28;20202;-73
2021/10/11 16:45:14;;;;;;;1.75;1.20;;;11.60;99.90;;;;;;5052626;28;20222;-73
2021/10/11 16:47:41;;;;;;;6.03;2.15;;;11.60;99.90;;;;;;5052299;28;20209;-72
2021/10/11 16:50:10;;;;;;;2.88;2.75;;;11.60;99.90;;;;;;5052700;28;20225;-72
2021/10/11 16:52:37;;;;;;;2.03;1.48;;;11.70;99.90;;;;;;5051807;28;20585;-72
2021/10/11 16:55:04;;;;;;;4.32;3.92;;;11.70;99.90;;;;;;5052598;28;20269;-72
2021/10/11 16:57:33;;;;;;;4.82;3.30;;;11.70;99.90;;;;;;5051847;28;20225;-72
2021/10/11 17:00:00;;;;;;;3.00;1.90;;;11.60;99.90;;;;;;5052379;28;20209;-72
2021/10/11 17:02:26;;;;;;;3.08;2.88;;;11.60;99.90;;;;;;5050813;28;20736;-72
2021/10/11 17:04:53;;;;;;;4.22;3.92;;;11.50;99.90;;;;;;5052316;28;20512;-72
2021/10/11 17:07:20;;;;;;;9.50;4.88;;;11.50;99.90;;;;;;5051324;28;20661;-72
2021/10/11 17:09:46;;;;;;;9.07;6.60;;;11.40;99.90;;;;;;5052117;28;20668;-72
2021/10/11 17:12:13;;;;;;;7.25;4.15;;;11.30;99.90;;;;;;5051736;28;20736;-72
2021/10/11 17:14:41;;;;;;;3.42;3.22;;;11.30;99.90;;;;;;5051980;28;20209;-72
2021/10/11 17:17:08;;;;;;;1.88;1.50;;;11.20;99.90;;;;;;5052020;28;20245;-70
2021/10/11 17:19:34;;;;;;;8.63;3.20;;;11.20;99.90;;;;;;5051965;28;20202;-70
2021/10/11 17:22:01;;;;;;;5.88;2.13;;;11.10;99.90;;;;;;5050904;28;20633;-72
2021/10/11 17:24:28;;;;;;;4.50;3.17;;;11.10;99.90;;;;;;5051646;28;20277;-72
2021/10/11 17:26:54;;;;;;;4.15;3.10;;;11.10;99.90;;;;;;5051317;28;20568;-72
2021/10/11 17:29:22;;;;;;;3.70;3.20;;;11.00;99.90;;;;;;5051764;28;20622;-71
2021/10/11 17:31:50;;;;;;;7.88;5.05;;;11.00;99.90;;;;;;5051324;28;20347;-71
2021/10/11 17:34:17;;;;;;;5.50;4.72;;;10.90;99.90;;;;;;5051608;28;20213;-72
2021/10/11 17:36:44;;;;;;;10.13;4.00;;;10.90;99.90;;;;;;5050647;28;20221;-72
2021/10/11 17:39:10;;;;;;;8.52;7.20;;;10.90;99.90;;;;;;5051335;28;20210;-71
2021/10/11 17:41:37;;;;;;;7.80;3.85;;;10.80;99.90;;;;;;5051086;28;20292;-71
2021/10/11 17:44:04;;;;;;;6.03;3.60;;;10.80;99.90;;;;;;5051380;28;20271;-72
2021/10/11 17:46:31;;;;;;;8.77;2.45;;;10.80;99.90;;;;;;5051465;28;20210;-72
2021/10/11 17:48:59;;;;;;;7.45;4.97;;;10.70;99.90;;;;;;5051663;28;20202;-72
2021/10/11 17:51:25;;;;;;;17.42;15.98;;;10.70;99.90;;;;;;5048168;28;20229;-71
2021/10/11 17:53:52;;;;;;;3.30;2.70;;;10.70;99.90;;;;;;5051220;28;20275;-72
2021/10/11 17:56:19;;;;;;;3.47;1.40;;;10.60;99.90;;;;;;5051623;28;20255;-71
2021/10/11 17:58:45;;;;;;;10.88;2.25;;;10.60;99.90;;;;;;5051220;28;20697;-71
2021/10/11 18:01:12;;;;;;;4.00;3.10;;;10.60;99.90;;;;;;5051441;28;20690;-71
2021/10/11 18:03:39;;;;;;;5.97;3.22;;;10.50;99.90;;;;;;5050994;28;20578;-71
2021/10/11 18:06:08;;;;;;;6.63;3.53;;;10.50;99.90;;;;;;5050985;28;20700;-71
2021/10/11 18:08:34;;;;;;;11.35;4.57;;;10.50;99.90;;;;;;5051144;28;20202;-72
2021/10/11 18:11:02;;;;;;;8.30;4.00;;;10.50;99.90;;;;;;5051328;28;20620;-70
2021/10/11 18:13:29;;;;;;;4.43;3.58;;;10.50;99.90;;;;;;5051688;28;20214;-71
2021/10/11 18:15:56;;;;;;;9.68;3.83;;;10.50;99.90;;;;;;5051609;28;20206;-70
2021/10/11 18:18:23;;;;;;;4.95;4.40;;;10.50;99.90;;;;;;5051290;28;20221;-70
2021/10/11 18:20:50;;;;;;;7.90;4.85;;;10.50;99.90;;;;;;5051109;28;20225;-71
2021/10/11 18:23:18;;;;;;;16.83;8.95;;;10.50;99.90;;;;;;5051878;28;20572;-70
2021/10/11 18:25:47;;;;;;;16.20;8.18;;;10.50;99.90;;;;;;5055320;28;20206;-70
2021/10/11 18:28:14;;;;;;;11.38;4.05;;;10.50;99.90;;;;;;5055273;28;20206;-70
2021/10/11 18:30:41;;;;;;;7.95;3.40;;;10.50;99.90;;;;;;5055032;28;20344;-71
2021/10/11 18:33:07;;;;;;;12.82;4.10;;;10.50;99.90;;;;;;5054600;28;20210;-70
2021/10/11 18:35:34;;;;;;;7.43;5.25;;;10.50;99.90;;;;;;5055165;28;20267;-70
2021/10/11 18:38:01;;;;;;;5.90;3.10;;;10.50;99.90;;;;;;5053746;28;20287;-70
2021/10/11 18:40:29;;;;;;;6.57;2.88;;;10.40;99.90;;;;;;5054967;28;20283;-70
2021/10/11 18:42:56;;;;;;;9.80;3.90;;;10.40;99.90;;;;;;5054584;28;20225;-70
2021/10/11 18:45:23;;;;;;;7.18;3.10;;;10.40;99.90;;;;;;5072770;28;20541;-69
2021/10/11 18:47:49;;;;;;;5.10;2.75;;;10.40;99.90;;;;;;5074289;28;20205;-70
2021/10/11 18:50:16;;;;;;;6.43;3.50;;;10.30;99.90;;;;;;5074796;28;20209;-70
2021/10/11 18:52:43;;;;;;;6.63;3.03;;;10.30;99.90;;;;;;5073593;28;20263;-71
2021/10/11 18:55:10;;;;;;;5.53;3.25;;;10.30;99.90;;;;;;5074627;28;20260;-71
2021/10/11 18:57:38;;;;;;;2.55;2.28;;;10.20;99.90;;;;;;5074516;28;20221;-70
2021/10/11 19:00:06;;;;;;;2.05;1.90;;;10.20;99.90;;;;;;5074648;28;20201;-69
2021/10/11 19:02:33;;;;;;;4.40;2.35;;;10.20;99.90;;;;;;5074007;28;20221;-70